Time;durP1;ratioP1;P1;durP2;ratioP2;P2;SDS_P1;SDS_P2;PMS_P1;PMS_P2;Temp;Humidity;BMP_temperature;BMP_pressure;BME280_temperature;BME280_humidity;BME280_pressure;Samples;Min_cycle;Max_cycle;Signal;HPM_P1;HPM_P2
2023/11/11 00:01:21;;;;;;;1.83;1.10;;;18.40;66.90;;;;;;6206889;23;20172;-78
2023/11/11 00:03:48;;;;;;;2.22;1.23;;;18.40;66.80;;;;;;6207499;23;20587;-80
2023/11/11 00:06:18;;;;;;;1.27;1.10;;;18.50;66.90;;;;;;6183400;23;20215;-80
2023/11/11 00:08:48;;;;;;;2.42;1.25;;;18.40;66.80;;;;;;6131994;23;20160;-79
2023/11/11 00:11:14;;;;;;;2.40;1.30;;;18.40;66.80;;;;;;6132386;23;20234;-79
2023/11/11 00:13:40;;;;;;;1.10;1.00;;;18.40;67.00;;;;;;6182380;23;20173;-79
2023/11/11 00:16:06;;;;;;;2.65;1.23;;;18.40;67.00;;;;;;6157529;23;20145;-80
2023/11/11 00:18:33;;;;;;;1.30;1.20;;;18.40;67.00;;;;;;6182298;23;20169;-79
2023/11/11 00:21:00;;;;;;;3.00;1.42;;;18.40;67.10;;;;;;6183160;23;20145;-79
2023/11/11 00:23:26;;;;;;;1.70;1.25;;;18.40;67.20;;;;;;6107044;23;20140;-79
2023/11/11 00:25:52;;;;;;;1.67;1.23;;;18.40;67.00;;;;;;6106160;23;20137;-80
2023/11/11 00:28:17;;;;;;;2.53;1.40;;;18.40;67.20;;;;;;6106254;23;20797;-79
2023/11/11 00:30:44;;;;;;;1.83;1.33;;;18.40;67.20;;;;;;6105802;23;20584;-79
2023/11/11 00:33:10;;;;;;;1.27;1.02;;;18.40;67.00;;;;;;6205850;23;20445;-79
2023/11/11 00:35:42;;;;;;;2.00;1.13;;;18.40;67.00;;;;;;6182523;23;20144;-79
2023/11/11 00:38:12;;;;;;;1.52;1.30;;;18.40;67.00;;;;;;6156743;23;20184;-79
2023/11/11 00:40:39;;;;;;;1.75;1.35;;;18.30;66.90;;;;;;6181146;23;20157;-79
2023/11/11 00:43:05;;;;;;;3.08;1.20;;;18.40;66.90;;;;;;6206462;23;20175;-79
2023/11/11 00:45:36;;;;;;;2.08;1.40;;;18.40;67.00;;;;;;6207199;23;20193;-79
2023/11/11 00:48:06;;;;;;;2.65;1.40;;;18.30;67.00;;;;;;6156843;23;20160;-79
2023/11/11 00:50:33;;;;;;;4.32;1.20;;;18.40;67.10;;;;;;6132167;23;20165;-79
2023/11/11 00:53:01;;;;;;;1.90;1.25;;;18.40;67.10;;;;;;6208692;23;20144;-79
2023/11/11 00:55:27;;;;;;;1.27;0.98;;;18.30;67.20;;;;;;6180311;23;20212;-79
2023/11/11 00:57:56;;;;;;;2.40;1.55;;;18.40;67.30;;;;;;6207644;23;20184;-79
2023/11/11 01:00:22;;;;;;;1.30;1.17;;;18.30;67.20;;;;;;6158899;23;20149;-79
2023/11/11 01:02:50;;;;;;;2.78;1.30;;;18.30;67.20;;;;;;6182999;23;20145;-79
2023/11/11 01:05:19;;;;;;;2.38;1.38;;;18.30;67.20;;;;;;6182314;23;20149;-80
2023/11/11 01:07:44;;;;;;;1.92;1.23;;;18.40;67.20;;;;;;6181807;23;20142;-79
2023/11/11 01:10:13;;;;;;;1.15;1.05;;;18.40;67.20;;;;;;6105615;23;20471;-79
2023/11/11 01:12:44;;;;;;;1.77;1.17;;;18.40;67.20;;;;;;6105585;23;20220;-79
2023/11/11 01:15:12;;;;;;;3.33;1.60;;;18.30;67.20;;;;;;6105974;23;20142;-79
2023/11/11 01:17:38;;;;;;;1.10;1.00;;;18.30;67.30;;;;;;6205569;23;20169;-80
2023/11/11 01:20:05;;;;;;;1.73;1.40;;;18.40;67.20;;;;;;6206689;23;20137;-80
2023/11/11 01:22:35;;;;;;;1.38;1.00;;;18.30;67.10;;;;;;6206872;23;20193;-79
2023/11/11 01:25:03;;;;;;;3.65;1.30;;;18.40;67.20;;;;;;6208068;23;20503;-79
2023/11/11 01:27:31;;;;;;;1.75;1.50;;;18.30;67.00;;;;;;6208680;23;20141;-79
2023/11/11 01:30:00;;;;;;;1.70;1.20;;;18.30;67.20;;;;;;6229911;23;20186;-80
2023/11/11 01:32:27;;;;;;;2.60;1.35;;;18.40;67.20;;;;;;6228609;23;20138;-80
2023/11/11 01:34:53;;;;;;;2.08;1.60;;;18.30;67.30;;;;;;6231019;23;20138;-79
2023/11/11 01:37:20;;;;;;;2.72;1.48;;;18.40;67.10;;;;;;6231286;23;20612;-79
2023/11/11 01:39:48;;;;;;;1.73;1.48;;;18.40;67.10;;;;;;6204848;23;20157;-79
2023/11/11 01:42:15;;;;;;;1.80;1.40;;;18.40;67.00;;;;;;6230157;23;20142;-79
2023/11/11 01:44:42;;;;;;;1.40;1.27;;;18.30;67.10;;;;;;6179240;23;20157;-79
2023/11/11 01:47:07;;;;;;;2.78;1.20;;;18.30;67.20;;;;;;6230128;23;20134;-79
2023/11/11 01:49:36;;;;;;;1.40;1.10;;;18.40;67.00;;;;;;6229951;23;20150;-79
2023/11/11 01:52:02;;;;;;;1.40;1.15;;;18.40;67.00;;;;;;6229183;23;20601;-79
2023/11/11 01:54:33;;;;;;;1.88;1.17;;;18.30;67.00;;;;;;6203604;23;20153;-79
2023/11/11 01:56:59;;;;;;;2.28;1.13;;;18.30;67.00;;;;;;6203651;23;20162;-79
2023/11/11 01:59:25;;;;;;;1.58;1.10;;;18.30;67.20;;;;;;6230920;23;20192;-79
2023/11/11 02:01:51;;;;;;;2.40;1.27;;;18.30;67.20;;;;;;6179526;23;20152;-79
2023/11/11 02:04:19;;;;;;;1.40;1.30;;;18.40;67.20;;;;;;6179277;23;20150;-79
2023/11/11 02:06:50;;;;;;;1.30;1.20;;;18.40;67.30;;;;;;6231221;23;20126;-79
2023/11/11 02:09:22;;;;;;;1.77;1.40;;;18.30;67.30;;;;;;6177925;23;20150;-79
2023/11/11 02:11:52;;;;;;;2.85;1.27;;;18.30;67.30;;;;;;6154940;23;20150;-79
2023/11/11 02:14:18;;;;;;;2.88;1.27;;;18.30;67.30;;;;;;6230591;23;20187;-79
2023/11/11 02:16:44;;;;;;;1.63;1.40;;;18.30;67.20;;;;;;6204459;23;20149;-79
2023/11/11 02:19:10;;;;;;;2.95;1.40;;;18.30;67.30;;;;;;6230412;23;20209;-79
2023/11/11 02:21:35;;;;;;;2.08;1.10;;;18.30;67.20;;;;;;6229333;23;20217;-79
2023/11/11 02:24:06;;;;;;;1.92;1.50;;;18.30;68.10;;;;;;6203663;23;20172;-79
2023/11/11 02:26:34;;;;;;;1.42;1.13;;;18.30;67.30;;;;;;6177983;23;20154;-79
2023/11/11 02:29:02;;;;;;;2.17;1.15;;;18.30;67.20;;;;;;6168199;23;20203;-79
2023/11/11 02:31:31;;;;;;;1.45;1.10;;;18.30;67.30;;;;;;6156077;23;20547;-79
2023/11/11 02:33:58;;;;;;;1.60;1.13;;;18.30;67.20;;;;;;6107597;23;20168;-79
2023/11/11 02:36:24;;;;;;;1.45;1.20;;;18.30;67.30;;;;;;6208397;23;20643;-79
2023/11/11 02:38:51;;;;;;;2.80;1.40;;;18.30;67.30;;;;;;6156497;23;20185;-79
2023/11/11 02:41:19;;;;;;;2.72;1.40;;;18.30;67.20;;;;;;6182837;23;20161;-78
2023/11/11 02:43:45;;;;;;;2.15;1.20;;;18.30;67.30;;;;;;6107147;23;20137;-79
2023/11/11 02:46:15;;;;;;;2.67;1.58;;;18.40;67.20;;;;;;6107416;23;20144;-79
2023/11/11 02:48:44;;;;;;;1.52;1.38;;;18.30;67.20;;;;;;6134024;23;20152;-79
2023/11/11 02:51:10;;;;;;;2.05;1.20;;;18.30;67.30;;;;;;6182433;23;20157;-79
2023/11/11 02:53:40;;;;;;;1.42;1.15;;;18.20;67.20;;;;;;6207535;23;20686;-78
2023/11/11 02:56:06;;;;;;;2.00;1.23;;;18.30;67.20;;;;;;6157787;23;20187;-79
2023/11/11 02:58:33;;;;;;;1.20;1.10;;;18.30;67.30;;;;;;6207816;23;20165;-79
2023/11/11 03:01:03;;;;;;;1.77;1.20;;;18.30;67.20;;;;;;6207906;23;20152;-79
2023/11/11 03:03:29;;;;;;;1.70;1.10;;;18.30;67.30;;;;;;6158571;23;20161;-78
2023/11/11 03:06:02;;;;;;;1.98;1.20;;;18.30;67.40;;;;;;6106948;23;20133;-79
2023/11/11 03:08:28;;;;;;;1.50;1.30;;;18.30;67.30;;;;;;6180812;23;20157;-79
2023/11/11 03:10:58;;;;;;;1.27;1.17;;;18.30;67.40;;;;;;6208837;23;20473;-80
2023/11/11 03:13:24;;;;;;;1.27;1.10;;;18.30;67.30;;;;;;6182498;23;20262;-79
2023/11/11 03:15:54;;;;;;;1.35;1.20;;;18.30;67.40;;;;;;6106764;23;20141;-79
2023/11/11 03:18:23;;;;;;;3.15;1.10;;;18.30;67.30;;;;;;6157353;23;20184;-79
2023/11/11 03:20:54;;;;;;;1.48;1.20;;;18.30;67.40;;;;;;6207983;23;20145;-79
2023/11/11 03:23:24;;;;;;;1.55;1.17;;;18.30;67.30;;;;;;6157294;23;20220;-80
2023/11/11 03:25:53;;;;;;;1.20;0.98;;;18.20;67.40;;;;;;6182030;23;20191;-79
2023/11/11 03:28:19;;;;;;;2.78;1.20;;;18.20;67.40;;;;;;6177323;23;20487;-79
2023/11/11 03:30:48;;;;;;;1.52;1.23;;;18.20;67.30;;;;;;6202703;23;20209;-79
2023/11/11 03:33:17;;;;;;;3.25;1.30;;;18.30;67.20;;;;;;6201091;23;20154;-79
2023/11/11 03:35:51;;;;;;;1.40;1.10;;;18.30;67.20;;;;;;6202390;23;20237;-79
2023/11/11 03:38:18;;;;;;;1.50;1.13;;;18.30;67.40;;;;;;6177369;23;20182;-80
2023/11/11 03:40:44;;;;;;;1.67;1.08;;;18.30;67.40;;;;;;6203976;23;20494;-79
2023/11/11 03:43:13;;;;;;;1.52;1.20;;;18.30;67.20;;;;;;6204172;23;20137;-79
2023/11/11 03:45:39;;;;;;;2.40;1.05;;;18.20;67.30;;;;;;6152789;23;20590;-79
2023/11/11 03:48:06;;;;;;;1.67;1.20;;;18.30;67.20;;;;;;6178038;23;20176;-79
2023/11/11 03:50:32;;;;;;;1.33;1.20;;;18.30;67.30;;;;;;6177387;23;20165;-79
2023/11/11 03:52:58;;;;;;;3.30;1.30;;;18.30;67.30;;;;;;6179057;23;20165;-79
2023/11/11 03:55:23;;;;;;;1.77;1.45;;;18.20;67.40;;;;;;6202773;23;20157;-79
2023/11/11 03:57:57;;;;;;;1.85;1.30;;;18.20;67.30;;;;;;6203566;23;20229;-79
2023/11/11 04:00:23;;;;;;;2.15;1.27;;;18.20;67.30;;;;;;6228999;23;20131;-79
2023/11/11 04:02:53;;;;;;;1.42;1.33;;;18.30;67.30;;;;;;6203306;23;20146;-79
2023/11/11 04:05:20;;;;;;;1.20;1.10;;;18.30;67.40;;;;;;6178308;23;20160;-79
2023/11/11 04:07:47;;;;;;;1.70;1.38;;;18.20;67.30;;;;;;6228009;23;20228;-79
2023/11/11 04:10:14;;;;;;;1.38;1.20;;;18.20;67.30;;;;;;6228187;23;20188;-79
2023/11/11 04:12:40;;;;;;;1.75;1.20;;;18.20;67.40;;;;;;6227702;23;20134;-79
2023/11/11 04:15:10;;;;;;;2.30;1.30;;;18.30;67.20;;;;;;6203386;23;20134;-78
2023/11/11 04:17:42;;;;;;;1.92;1.20;;;18.30;67.30;;;;;;6202566;23;20188;-79
2023/11/11 04:20:11;;;;;;;1.80;1.05;;;18.20;67.40;;;;;;6203118;23;20149;-80
2023/11/11 04:22:38;;;;;;;1.10;1.00;;;18.30;67.20;;;;;;6177474;23;20150;-79
2023/11/11 04:25:09;;;;;;;1.52;1.10;;;18.30;67.30;;;;;;6203736;23;20150;-79
2023/11/11 04:27:35;;;;;;;1.20;1.10;;;18.20;67.40;;;;;;6228234;23;20573;-80
2023/11/11 04:30:03;;;;;;;1.45;1.10;;;18.20;67.30;;;;;;6115746;23;20204;-79
2023/11/11 04:32:34;;;;;;;1.50;1.30;;;18.20;67.50;;;;;;6182370;23;20160;-79
2023/11/11 04:35:01;;;;;;;1.33;1.20;;;18.20;67.50;;;;;;6157953;23;20215;-79
2023/11/11 04:37:27;;;;;;;1.10;0.95;;;18.20;67.60;;;;;;6183048;23;20176;-79
2023/11/11 04:39:58;;;;;;;1.50;1.25;;;18.20;67.50;;;;;;6106155;23;20254;-79
2023/11/11 04:42:33;;;;;;;1.25;1.15;;;18.20;67.70;;;;;;6156377;23;20519;-80
2023/11/11 04:45:01;;;;;;;1.88;1.40;;;18.20;67.60;;;;;;6155642;23;20148;-79
2023/11/11 04:47:28;;;;;;;1.70;1.30;;;18.20;67.70;;;;;;6207571;23;20144;-79
2023/11/11 04:49:57;;;;;;;1.35;1.20;;;18.20;67.60;;;;;;6181352;23;20168;-80
2023/11/11 04:52:27;;;;;;;2.38;1.15;;;18.20;67.50;;;;;;6181109;23;20161;-80
2023/11/11 04:54:53;;;;;;;1.40;1.17;;;18.20;67.40;;;;;;6180571;23;20490;-80
2023/11/11 04:57:24;;;;;;;1.42;1.30;;;18.20;67.60;;;;;;6207124;23;20194;-79
2023/11/11 04:59:52;;;;;;;1.58;1.10;;;18.20;67.40;;;;;;6183393;23;20257;-79
2023/11/11 05:02:19;;;;;;;1.20;1.10;;;18.20;67.30;;;;;;6107256;23;20191;-79
2023/11/11 05:04:45;;;;;;;1.88;1.30;;;18.20;67.30;;;;;;6106718;23;20203;-79
2023/11/11 05:07:14;;;;;;;2.20;1.17;;;18.20;67.40;;;;;;6108034;23;20137;-78
2023/11/11 05:09:42;;;;;;;3.28;1.20;;;18.20;67.60;;;;;;6134824;23;20244;-78
2023/11/11 05:12:10;;;;;;;2.60;0.98;;;18.20;67.60;;;;;;6209773;23;20144;-78
2023/11/11 05:14:36;;;;;;;1.98;1.10;;;18.20;67.50;;;;;;6182735;23;20156;-79
2023/11/11 05:17:07;;;;;;;1.67;1.40;;;18.20;67.60;;;;;;6184582;23;20137;-79
2023/11/11 05:19:33;;;;;;;2.03;1.00;;;18.10;67.50;;;;;;6184752;23;20168;-79
2023/11/11 05:21:58;;;;;;;1.10;1.00;;;18.20;67.70;;;;;;6184078;23;20162;-79
2023/11/11 05:24:24;;;;;;;1.17;1.08;;;18.20;67.70;;;;;;6208318;23;20133;-80
2023/11/11 05:26:51;;;;;;;2.05;1.23;;;18.20;67.70;;;;;;6184607;23;20133;-79
2023/11/11 05:29:17;;;;;;;1.42;1.13;;;18.20;67.70;;;;;;6158553;23;20251;-79
2023/11/11 05:31:46;;;;;;;1.40;1.20;;;18.20;67.60;;;;;;6209477;23;20165;-79
2023/11/11 05:34:13;;;;;;;2.88;1.23;;;18.20;67.80;;;;;;6208396;23;20137;-79
2023/11/11 05:36:44;;;;;;;2.03;1.13;;;18.20;67.70;;;;;;6107292;23;20203;-79
2023/11/11 05:39:14;;;;;;;2.97;1.40;;;18.20;67.80;;;;;;6158368;23;20192;-79
2023/11/11 05:41:41;;;;;;;1.58;1.25;;;18.20;67.70;;;;;;6208693;23;20175;-79
2023/11/11 05:44:08;;;;;;;1.23;1.00;;;18.20;67.60;;;;;;6183697;23;20145;-79
2023/11/11 05:46:35;;;;;;;2.08;1.40;;;18.20;67.70;;;;;;6108315;23;20133;-79
2023/11/11 05:49:03;;;;;;;1.30;1.20;;;18.20;67.80;;;;;;6107250;23;20224;-79
2023/11/11 05:51:30;;;;;;;1.13;1.02;;;18.10;67.80;;;;;;6107602;23;20133;-79
2023/11/11 05:53:58;;;;;;;1.80;1.25;;;18.10;67.70;;;;;;6106358;23;20213;-79
2023/11/11 05:56:28;;;;;;;1.38;1.00;;;18.20;67.80;;;;;;6107907;23;20137;-79
2023/11/11 05:58:58;;;;;;;2.75;1.27;;;18.20;67.80;;;;;;6181941;23;20192;-80
2023/11/11 06:01:29;;;;;;;1.05;1.00;;;18.20;67.70;;;;;;6183764;23;20149;-79
2023/11/11 06:04:00;;;;;;;1.60;1.08;;;18.10;67.70;;;;;;6182993;23;20156;-79
2023/11/11 06:06:25;;;;;;;2.45;1.20;;;18.10;67.60;;;;;;6182619;23;20153;-80
2023/11/11 06:08:53;;;;;;;1.92;1.20;;;18.20;67.80;;;;;;6107014;23;20137;-79
2023/11/11 06:11:23;;;;;;;1.13;1.02;;;18.10;67.80;;;;;;6208503;23;20156;-79
2023/11/11 06:13:51;;;;;;;1.58;1.48;;;18.10;67.90;;;;;;6182226;23;20161;-79
2023/11/11 06:16:17;;;;;;;1.85;1.30;;;18.20;67.80;;;;;;6107608;23;20137;-79
2023/11/11 06:18:44;;;;;;;1.67;1.05;;;18.10;67.90;;;;;;6107002;23;20253;-79
2023/11/11 06:21:11;;;;;;;1.13;1.02;;;18.00;67.80;;;;;;6207743;23;20141;-79
2023/11/11 06:23:37;;;;;;;1.08;0.98;;;18.10;67.80;;;;;;6106920;23;20133;-79
2023/11/11 06:26:07;;;;;;;1.35;1.25;;;18.10;67.90;;;;;;6107048;23;20205;-79
2023/11/11 06:28:33;;;;;;;1.00;0.90;;;18.10;67.70;;;;;;6202015;23;20197;-80
2023/11/11 06:31:00;;;;;;;2.28;1.38;;;18.10;67.70;;;;;;6229171;23;20216;-79
2023/11/11 06:33:28;;;;;;;1.73;1.13;;;18.20;67.70;;;;;;6227560;23;20212;-79
2023/11/11 06:35:58;;;;;;;1.45;1.20;;;18.10;67.70;;;;;;6228717;23;20581;-80
2023/11/11 06:38:24;;;;;;;1.00;1.00;;;18.20;67.70;;;;;;6228774;23;20172;-79
2023/11/11 06:40:49;;;;;;;1.35;1.23;;;18.10;67.70;;;;;;6228307;23;20162;-80
2023/11/11 06:43:17;;;;;;;1.58;1.25;;;18.10;67.90;;;;;;6228046;23;20250;-79
2023/11/11 06:45:44;;;;;;;1.45;1.20;;;18.10;67.80;;;;;;6230364;23;20141;-78
2023/11/11 06:48:12;;;;;;;1.30;1.20;;;18.10;67.60;;;;;;6228862;23;20161;-79
2023/11/11 06:50:38;;;;;;;1.48;1.27;;;18.20;67.60;;;;;;6178561;23;20141;-79
2023/11/11 06:53:03;;;;;;;2.03;1.20;;;18.20;67.80;;;;;;6228979;23;20531;-79
2023/11/11 06:55:30;;;;;;;1.27;1.05;;;18.20;67.60;;;;;;6228188;23;20206;-79
2023/11/11 06:57:56;;;;;;;0.93;0.93;;;18.20;67.70;;;;;;6179310;23;20202;-79
2023/11/11 07:00:22;;;;;;;1.30;1.20;;;18.20;67.60;;;;;;6229131;23;20134;-79
2023/11/11 07:02:54;;;;;;;1.52;1.35;;;18.20;67.60;;;;;;6227973;23;20134;-79
2023/11/11 07:05:20;;;;;;;1.45;1.17;;;18.20;67.70;;;;;;6228308;23;20142;-78
2023/11/11 07:07:46;;;;;;;1.30;1.20;;;18.10;67.50;;;;;;6203279;23;20169;-79
2023/11/11 07:10:13;;;;;;;1.20;1.10;;;18.20;67.60;;;;;;6230154;23;20189;-79
2023/11/11 07:12:39;;;;;;;1.20;1.10;;;18.10;67.70;;;;;;6230751;23;20145;-80
2023/11/11 07:15:06;;;;;;;2.15;1.30;;;18.10;67.80;;;;;;6202894;23;20229;-80
2023/11/11 07:17:31;;;;;;;1.73;1.20;;;18.10;67.90;;;;;;6203841;23;20223;-79
2023/11/11 07:19:58;;;;;;;2.22;1.20;;;18.10;67.80;;;;;;6228267;23;20130;-80
2023/11/11 07:22:32;;;;;;;1.20;1.10;;;18.10;67.70;;;;;;6202910;23;20146;-80
2023/11/11 07:25:11;;;;;;;1.85;1.17;;;18.10;67.70;;;;;;6201908;23;20172;-79
2023/11/11 07:27:37;;;;;;;1.48;1.20;;;18.10;67.70;;;;;;6178655;23;20470;-79
2023/11/11 07:30:09;;;;;;;2.25;1.10;;;18.20;67.60;;;;;;6181979;23;20211;-79
2023/11/11 07:32:44;;;;;;;2.33;1.10;;;18.20;67.40;;;;;;6177238;23;20134;-79
2023/11/11 07:35:11;;;;;;;1.40;1.15;;;18.20;67.80;;;;;;6204694;23;20132;-78
2023/11/11 07:37:46;;;;;;;1.45;1.17;;;18.10;67.80;;;;;;6207531;23;20176;-79
2023/11/11 07:40:14;;;;;;;1.30;1.20;;;18.10;67.70;;;;;;6159715;23;20179;-78
2023/11/11 07:42:41;;;;;;;1.77;1.00;;;18.10;67.80;;;;;;6106218;23;20133;-78
2023/11/11 07:45:07;;;;;;;1.45;1.17;;;18.10;67.60;;;;;;6182006;23;20152;-78
2023/11/11 07:47:35;;;;;;;1.77;1.05;;;18.10;67.80;;;;;;6206572;23;20156;-78
2023/11/11 07:50:04;;;;;;;1.20;1.08;;;18.10;67.70;;;;;;6179091;23;20603;-78
2023/11/11 07:52:36;;;;;;;1.50;1.00;;;18.10;67.80;;;;;;6178608;23;20137;-81
2023/11/11 07:55:05;;;;;;;2.20;1.17;;;18.10;67.70;;;;;;6123680;23;20422;-79
2023/11/11 07:57:33;;;;;;;2.45;1.10;;;18.10;67.80;;;;;;6205144;23;20169;-79
2023/11/11 07:59:58;;;;;;;1.30;1.10;;;18.20;67.80;;;;;;6181362;23;20159;-79
2023/11/11 08:02:29;;;;;;;2.28;1.10;;;18.10;67.70;;;;;;6206232;23;20137;-78
2023/11/11 08:04:55;;;;;;;1.10;1.00;;;18.20;67.80;;;;;;6106433;23;20155;-78
2023/11/11 08:07:21;;;;;;;2.25;1.20;;;18.10;67.50;;;;;;6206021;23;20169;-77
2023/11/11 08:09:55;;;;;;;1.75;1.00;;;18.20;67.50;;;;;;6106343;23;20165;-78
2023/11/11 08:12:20;;;;;;;3.10;1.10;;;18.30;67.10;;;;;;6181616;23;20670;-79
2023/11/11 08:14:46;;;;;;;1.30;1.00;;;18.30;66.80;;;;;;6106050;23;20216;-78
2023/11/11 08:17:14;;;;;;;1.70;1.10;;;18.30;66.70;;;;;;6205972;23;20179;-79
2023/11/11 08:19:40;;;;;;;1.10;0.80;;;18.30;66.30;;;;;;6205673;23;20133;-78
2023/11/11 08:22:07;;;;;;;1.30;0.98;;;18.40;66.60;;;;;;6181804;23;20551;-79
2023/11/11 08:24:33;;;;;;;0.95;0.88;;;18.40;66.40;;;;;;6182416;23;20149;-79
2023/11/11 08:26:59;;;;;;;1.70;0.88;;;18.40;66.30;;;;;;6182690;23;20140;-79
2023/11/11 08:29:26;;;;;;;2.10;1.05;;;18.30;66.50;;;;;;6178359;23;20189;-79
2023/11/11 08:31:53;;;;;;;1.10;0.90;;;18.30;66.70;;;;;;6177720;23;20161;-78
2023/11/11 08:34:19;;;;;;;3.10;0.98;;;18.40;66.30;;;;;;6228124;23;20138;-78
2023/11/11 08:36:45;;;;;;;1.35;1.13;;;18.40;66.20;;;;;;6199992;23;20159;-78
2023/11/11 08:39:12;;;;;;;1.30;1.20;;;18.50;66.30;;;;;;6173578;23;20182;-80
2023/11/11 08:41:38;;;;;;;2.35;1.08;;;18.40;65.90;;;;;;6222099;23;20126;-80
2023/11/11 08:44:10;;;;;;;2.53;0.90;;;18.50;65.80;;;;;;6226852;23;20142;-81
2023/11/11 08:46:38;;;;;;;1.05;0.80;;;18.50;66.10;;;;;;6221305;23;20176;-79
2023/11/11 08:49:29;;;;;;;;;;;;;;;;;;;;;
2023/11/11 08:51:55;;;;;;;5.45;1.27;;;18.60;65.90;;;;;;6077597;23;20290;-81
2023/11/11 08:54:23;;;;;;;2.90;1.42;;;18.50;66.10;;;;;;6106181;23;20170;-78
2023/11/11 08:56:53;;;;;;;1.30;0.90;;;18.60;66.40;;;;;;6081138;23;20537;-79
2023/11/11 08:59:25;;;;;;;2.45;0.93;;;18.60;66.50;;;;;;6083214;23;20219;-82
2023/11/11 09:01:51;;;;;;;3.17;1.10;;;18.60;66.60;;;;;;6059114;23;20155;-81
2023/11/11 09:04:17;;;;;;;5.40;0.93;;;18.60;66.50;;;;;;6083215;23;20156;-80
2023/11/11 09:06:46;;;;;;;2.30;0.90;;;18.60;66.70;;;;;;6054003;23;20165;-81
2023/11/11 09:09:15;;;;;;;4.72;0.98;;;18.70;66.90;;;;;;6050684;23;20153;-79
2023/11/11 09:11:41;;;;;;;2.65;1.35;;;18.70;66.60;;;;;;6053213;23;20157;-78
2023/11/11 09:14:09;;;;;;;4.35;1.20;;;18.80;66.20;;;;;;6031600;23;20275;-80
2023/11/11 09:16:38;;;;;;;3.45;1.38;;;18.80;66.30;;;;;;6050184;23;20152;-79
2023/11/11 09:19:03;;;;;;;4.03;1.35;;;18.90;66.40;;;;;;6082618;23;20181;-78
2023/11/11 09:21:38;;;;;;;5.68;1.50;;;18.80;66.00;;;;;;6066026;23;20293;-79
2023/11/11 09:24:06;;;;;;;1.83;0.90;;;18.90;65.90;;;;;;6175436;23;20191;-79
2023/11/11 09:26:33;;;;;;;6.68;1.20;;;18.90;66.30;;;;;;6173719;23;20325;-80
2023/11/11 09:29:03;;;;;;;2.78;1.10;;;18.90;66.00;;;;;;6174586;23;20278;-79
2023/11/11 09:31:30;;;;;;;7.35;1.20;;;18.90;65.90;;;;;;6149505;23;20166;-78
2023/11/11 09:34:12;;;;;;;3.15;1.13;;;18.90;65.90;;;;;;6175337;23;20601;-80
2023/11/11 09:36:41;;;;;;;2.58;0.95;;;18.90;65.60;;;;;;6154711;23;20186;-80
2023/11/11 09:39:08;;;;;;;4.20;1.10;;;18.90;65.80;;;;;;6206368;23;20632;-82
2023/11/11 09:41:38;;;;;;;4.68;0.90;;;18.80;66.00;;;;;;6182213;23;20276;-79
2023/11/11 09:44:08;;;;;;;6.35;1.30;;;18.90;65.80;;;;;;6234162;23;20138;-78
2023/11/11 09:46:54;;;;;;;5.85;1.67;;;18.90;65.60;;;;;;6207571;23;20153;-78
2023/11/11 09:49:30;;;;;;;;;;;;;;;;;;;;;
2023/11/11 09:51:59;;;;;;;12.25;1.58;;;18.90;65.20;;;;;;6181190;23;20157;-81
2023/11/11 09:54:25;;;;;;;10.68;1.60;;;18.90;65.60;;;;;;6119211;23;20155;-81
2023/11/11 09:57:03;;;;;;;17.13;1.60;;;18.90;65.90;;;;;;6122106;23;20190;-78
2023/11/11 09:59:31;;;;;;;18.55;1.95;;;18.90;65.90;;;;;;6145108;23;20166;-78
2023/11/11 10:01:57;;;;;;;17.83;2.13;;;18.90;67.00;;;;;;6116103;23;20144;-80
2023/11/11 10:04:43;;;;;;;9.55;1.80;;;18.90;66.40;;;;;;6143913;23;20605;-79
2023/11/11 10:07:10;;;;;;;18.65;1.55;;;18.90;66.90;;;;;;6120622;23;20198;-80
2023/11/11 10:09:36;;;;;;;13.02;1.70;;;18.90;66.90;;;;;;6142887;23;20152;-79
2023/11/11 10:12:04;;;;;;;6.90;1.75;;;18.80;66.70;;;;;;6117591;23;20151;-80
2023/11/11 10:14:32;;;;;;;10.75;1.27;;;18.80;66.60;;;;;;6117499;23;20167;-79
2023/11/11 10:17:03;;;;;;;12.10;1.30;;;18.80;66.70;;;;;;6116710;23;20154;-80
2023/11/11 10:19:29;;;;;;;7.82;1.42;;;18.80;66.80;;;;;;6117109;23;20517;-82
2023/11/11 10:21:56;;;;;;;10.95;1.40;;;18.80;67.10;;;;;;6115710;23;20213;-81
2023/11/11 10:24:22;;;;;;;8.55;1.20;;;18.80;67.00;;;;;;6146476;23;20202;-79
2023/11/11 10:26:50;;;;;;;2.63;1.00;;;18.80;67.10;;;;;;6226922;23;20146;-80
2023/11/11 10:29:23;;;;;;;3.78;1.23;;;18.80;67.10;;;;;;6155397;23;20207;-78
2023/11/11 10:31:51;;;;;;;4.32;1.15;;;18.90;67.20;;;;;;6155799;23;20160;-81
2023/11/11 10:34:22;;;;;;;4.30;1.40;;;18.90;67.00;;;;;;6130026;23;20164;-79
2023/11/11 10:36:47;;;;;;;7.97;1.50;;;18.90;67.30;;;;;;6105395;23;20202;-78
2023/11/11 10:39:15;;;;;;;5.40;1.30;;;18.90;67.20;;;;;;6181695;23;20450;-78
2023/11/11 10:41:43;;;;;;;3.08;1.10;;;18.90;66.90;;;;;;6181779;23;20247;-81
2023/11/11 10:44:08;;;;;;;5.13;1.10;;;18.90;66.80;;;;;;6180769;23;20136;-79
2023/11/11 10:46:36;;;;;;;8.20;1.40;;;18.90;66.70;;;;;;6182347;23;20145;-78
2023/11/11 10:49:04;;;;;;;9.43;1.60;;;18.90;67.40;;;;;;6182170;23;20183;-78
2023/11/11 10:51:30;;;;;;;1.33;0.95;;;18.90;66.60;;;;;;6147446;23;20161;-78
2023/11/11 10:53:56;;;;;;;6.80;1.30;;;18.90;66.70;;;;;;6145140;23;20158;-79
2023/11/11 10:56:27;;;;;;;3.00;0.95;;;18.90;66.80;;;;;;6172226;23;20161;-78
2023/11/11 10:58:57;;;;;;;6.50;1.20;;;18.90;67.00;;;;;;6143506;23;20183;-80
2023/11/11 11:01:24;;;;;;;13.80;1.35;;;18.90;67.00;;;;;;6144968;23;20158;-79
2023/11/11 11:03:49;;;;;;;9.00;1.15;;;18.80;66.90;;;;;;6170506;23;20202;-78
2023/11/11 11:06:39;;;;;;;5.60;1.23;;;18.80;67.30;;;;;;6170893;23;20178;-78
2023/11/11 11:09:22;;;;;;;4.07;0.95;;;18.90;66.80;;;;;;6170278;23;20147;-78
2023/11/11 11:12:10;;;;;;;3.80;1.00;;;18.80;67.40;;;;;;6195729;23;20157;-79
2023/11/11 11:14:46;;;;;;;2.00;1.20;;;18.90;67.00;;;;;;6172976;23;20193;-81
2023/11/11 11:17:15;;;;;;;5.75;1.17;;;18.90;67.30;;;;;;6173328;23;20153;-78
2023/11/11 11:20:04;;;;;;;3.33;1.20;;;18.90;67.70;;;;;;6146686;23;20135;-80
2023/11/11 11:22:37;;;;;;;7.63;1.00;;;18.80;67.40;;;;;;6174852;23;20148;-79
2023/11/11 11:25:41;;;;;;;2.10;1.10;;;18.90;67.60;;;;;;6155584;23;20183;-78
2023/11/11 11:28:16;;;;;;;4.03;0.85;;;18.90;67.40;;;;;;6206077;23;20160;-79
2023/11/11 11:30:55;;;;;;;1.98;1.08;;;18.90;67.70;;;;;;6181701;23;20137;-79
2023/11/11 11:33:26;;;;;;;4.82;1.20;;;18.80;67.60;;;;;;6125291;23;20154;-78
2023/11/11 11:36:06;;;;;;;4.95;1.00;;;18.80;67.60;;;;;;6197757;23;20190;-80
2023/11/11 11:38:36;;;;;;;4.68;1.00;;;18.90;67.60;;;;;;6124740;23;20256;-80
2023/11/11 11:41:13;;;;;;;7.35;1.17;;;18.90;67.90;;;;;;6197719;23;20142;-80
2023/11/11 11:43:41;;;;;;;3.47;1.00;;;18.80;68.70;;;;;;6168875;23;20190;-80
2023/11/11 11:46:09;;;;;;;3.72;1.25;;;18.90;67.70;;;;;;6120885;23;20243;-80
2023/11/11 11:48:37;;;;;;;3.60;1.10;;;18.90;67.40;;;;;;6170193;23;20472;-80
2023/11/11 11:51:08;;;;;;;4.70;1.50;;;18.90;67.70;;;;;;6170468;23;20162;-80
2023/11/11 11:53:37;;;;;;;8.77;1.00;;;18.90;68.20;;;;;;6170659;23;20223;-80
2023/11/11 11:56:10;;;;;;;3.90;1.30;;;18.90;68.00;;;;;;6171017;23;20139;-79
2023/11/11 11:58:45;;;;;;;6.00;1.17;;;18.90;68.20;;;;;;6123557;23;20205;-79
2023/11/11 12:01:19;;;;;;;4.65;1.10;;;18.90;68.60;;;;;;6195808;23;20134;-80
2023/11/11 12:03:45;;;;;;;2.22;1.13;;;18.90;68.40;;;;;;6171732;23;20202;-82
2023/11/11 12:06:12;;;;;;;4.18;1.08;;;18.90;68.30;;;;;;6207939;23;20133;-81
2023/11/11 12:08:38;;;;;;;2.83;1.30;;;18.90;68.00;;;;;;6180785;23;20164;-81
2023/11/11 12:11:09;;;;;;;2.95;1.27;;;19.00;67.10;;;;;;6156677;23;20514;-80
2023/11/11 12:13:37;;;;;;;2.95;1.30;;;18.90;66.50;;;;;;6184044;23;20149;-81
2023/11/11 12:16:09;;;;;;;8.68;1.67;;;18.90;66.80;;;;;;6181374;23;20163;-81
2023/11/11 12:18:35;;;;;;;7.10;1.20;;;18.90;67.70;;;;;;6181298;23;20195;-82
2023/11/11 12:21:01;;;;;;;2.97;1.35;;;18.80;67.60;;;;;;6182086;23;20145;-81
2023/11/11 12:23:27;;;;;;;3.40;1.30;;;18.80;68.20;;;;;;6181648;23;20146;-83
2023/11/11 12:25:53;;;;;;;3.88;1.30;;;18.70;68.10;;;;;;6154960;23;20152;-81
2023/11/11 12:28:19;;;;;;;5.68;1.13;;;18.80;68.30;;;;;;6179129;23;20163;-81
2023/11/11 12:30:47;;;;;;;7.05;1.48;;;18.80;68.30;;;;;;6180579;23;20160;-81
2023/11/11 12:33:15;;;;;;;5.35;1.35;;;18.80;68.30;;;;;;6206294;23;20159;-81
2023/11/11 12:35:41;;;;;;;9.70;1.30;;;18.80;68.40;;;;;;6155247;23;20148;-82
2023/11/11 12:38:20;;;;;;;6.90;1.30;;;18.70;69.00;;;;;;6180328;23;20183;-81
2023/11/11 12:40:47;;;;;;;10.57;1.63;;;18.80;68.30;;;;;;6205900;23;20144;-80
2023/11/11 12:43:15;;;;;;;8.35;1.40;;;18.70;68.30;;;;;;6205483;23;20141;-80
2023/11/11 12:45:51;;;;;;;18.65;2.03;;;18.70;68.00;;;;;;6181452;23;20137;-80
2023/11/11 12:48:22;;;;;;;8.80;1.77;;;18.70;68.50;;;;;;6204052;23;20610;-81
2023/11/11 12:50:52;;;;;;;8.52;1.52;;;18.70;68.30;;;;;;6157373;23;20523;-81
2023/11/11 12:53:20;;;;;;;5.05;1.35;;;18.80;68.10;;;;;;6181474;23;20196;-81
2023/11/11 12:55:46;;;;;;;6.88;1.50;;;18.80;68.00;;;;;;6205211;23;20141;-80